createdAt,value
2023-01-15T00:00:21.871Z,87.80
2023-01-15T00:02:48.356Z,87.80
2023-01-15T00:05:14.977Z,87.84
2023-01-15T00:07:41.420Z,87.28
2023-01-15T00:10:08.787Z,87.49
2023-01-15T00:12:35.219Z,87.50
2023-01-15T00:15:01.621Z,87.69
2023-01-15T00:17:28.079Z,87.59
2023-01-15T00:19:54.595Z,87.64
2023-01-15T00:22:20.998Z,87.78
2023-01-15T00:25:05.909Z,87.29
2023-01-15T00:27:41.711Z,87.11
2023-01-15T00:30:11.705Z,87.52
2023-01-15T00:32:39.040Z,87.54
2023-01-15T00:35:06.308Z,87.02
2023-01-15T00:37:32.739Z,86.44
2023-01-15T00:39:59.208Z,86.50
2023-01-15T00:42:25.661Z,86.23
2023-01-15T00:44:52.150Z,85.46
2023-01-15T00:47:18.636Z,85.54
2023-01-15T00:49:45.258Z,85.16
2023-01-15T00:52:12.296Z,85.14
2023-01-15T00:54:38.733Z,85.32
2023-01-15T00:57:05.232Z,85.08
2023-01-15T00:59:31.675Z,84.90
2023-01-15T01:01:58.356Z,84.59
2023-01-15T01:04:24.862Z,84.70
2023-01-15T01:06:51.290Z,84.70
2023-01-15T01:09:17.775Z,84.36
2023-01-15T01:11:44.232Z,84.54
2023-01-15T01:14:12.318Z,84.91
2023-01-15T01:16:40.455Z,84.56
2023-01-15T01:19:09.912Z,84.56
2023-01-15T01:21:40.970Z,84.86
2023-01-15T01:24:08.257Z,84.83
2023-01-15T01:26:35.183Z,84.61
2023-01-15T01:29:01.896Z,84.65
2023-01-15T01:31:28.406Z,84.75
2023-01-15T01:33:56.619Z,84.78
2023-01-15T01:36:32.136Z,85.32
2023-01-15T01:38:59.629Z,84.75
2023-01-15T01:41:27.168Z,84.95
2023-01-15T01:44:01.423Z,85.62
2023-01-15T01:46:30.693Z,84.72
2023-01-15T01:49:02.098Z,84.92
2023-01-15T01:51:34.482Z,85.05
2023-01-15T01:54:02.243Z,84.64
2023-01-15T01:56:30.720Z,85.14
2023-01-15T01:58:57.214Z,84.70
2023-01-15T02:01:25.337Z,84.71
2023-01-15T02:03:53.343Z,84.54
2023-01-15T02:06:20.319Z,84.10
2023-01-15T02:08:46.728Z,84.33
2023-01-15T02:11:17.394Z,83.80
2023-01-15T02:13:53.138Z,83.64
2023-01-15T02:16:56.847Z,83.91
2023-01-15T02:19:41.391Z,83.02
2023-01-15T02:22:49.254Z,82.84
2023-01-15T02:25:39.618Z,82.80
2023-01-15T02:28:26.204Z,82.18
2023-01-15T02:31:06.852Z,81.75
2023-01-15T02:33:44.003Z,81.33
2023-01-15T02:36:15.083Z,81.01
2023-01-15T02:38:48.594Z,80.96
2023-01-15T02:41:18.441Z,80.50
2023-01-15T02:43:48.634Z,80.07
2023-01-15T02:46:16.298Z,80.11
2023-01-15T02:48:46.394Z,79.52
2023-01-15T02:51:21.777Z,79.42
2023-01-15T02:53:51.209Z,79.13
2023-01-15T02:56:22.334Z,79.13
2023-01-15T02:58:53.786Z,78.75
2023-01-15T03:01:28.113Z,78.94
2023-01-15T03:04:10.275Z,78.66
2023-01-15T03:06:51.551Z,78.15
2023-01-15T03:09:18.793Z,77.83
2023-01-15T03:12:04.078Z,78.19
2023-01-15T03:14:38.509Z,78.16
2023-01-15T03:17:19.850Z,78.20
2023-01-15T03:20:11.904Z,77.85
2023-01-15T03:22:43.821Z,77.33
2023-01-15T03:25:19.035Z,76.85
2023-01-15T03:27:45.718Z,77.07
2023-01-15T03:30:15.827Z,77.13
2023-01-15T03:32:42.475Z,76.83
2023-01-15T03:35:49.672Z,77.24
2023-01-15T03:38:19.612Z,76.73
2023-01-15T03:41:30.896Z,77.25
2023-01-15T03:44:22.157Z,76.58
2023-01-15T03:46:54.352Z,76.09
2023-01-15T03:49:34.761Z,76.66
2023-01-15T03:52:20.095Z,76.39
2023-01-15T03:55:10.067Z,76.49
2023-01-15T03:57:48.426Z,76.47
2023-01-15T04:00:17.940Z,76.01
2023-01-15T04:02:46.969Z,76.48
2023-01-15T04:05:15.710Z,76.32
2023-01-15T04:07:42.464Z,76.23
2023-01-15T04:10:10.318Z,76.33
2023-01-15T04:12:36.833Z,76.30
2023-01-15T04:15:03.864Z,76.14
2023-01-15T04:17:30.504Z,76.01
2023-01-15T04:19:56.956Z,76.22
2023-01-15T04:22:23.385Z,76.42
2023-01-15T04:24:49.838Z,76.29
2023-01-15T04:27:16.270Z,76.08
2023-01-15T04:29:42.692Z,75.79
2023-01-15T04:32:09.131Z,75.97
2023-01-15T04:34:36.209Z,75.62
2023-01-15T04:37:02.715Z,75.83
2023-01-15T04:39:29.149Z,75.58
2023-01-15T04:42:14.062Z,75.18
2023-01-15T04:44:40.615Z,75.27
2023-01-15T04:47:07.084Z,74.97
2023-01-15T04:49:34.373Z,74.90
2023-01-15T04:52:00.974Z,74.83
2023-01-15T04:54:27.532Z,74.92
2023-01-15T04:56:55.094Z,74.64
2023-01-15T04:59:24.715Z,74.52
2023-01-15T05:02:02.995Z,74.80
2023-01-15T05:04:31.587Z,74.48
2023-01-15T05:06:57.995Z,74.95
2023-01-15T05:09:24.398Z,74.74
2023-01-15T05:11:50.846Z,74.80
2023-01-15T05:14:17.251Z,74.76
2023-01-15T05:16:44.336Z,74.54
2023-01-15T05:19:10.853Z,74.46
2023-01-15T05:21:42.165Z,74.59
2023-01-15T05:24:12.951Z,74.21
2023-01-15T05:26:39.452Z,74.38
2023-01-15T05:29:05.915Z,73.82
2023-01-15T05:31:33.731Z,73.60
2023-01-15T05:34:01.056Z,73.57
2023-01-15T05:36:30.189Z,73.03
2023-01-15T05:39:01.362Z,73.22
2023-01-15T05:41:46.621Z,72.82
2023-01-15T05:44:13.699Z,72.67
2023-01-15T05:46:41.654Z,72.63
2023-01-15T05:49:11.401Z,72.38
2023-01-15T05:51:38.610Z,72.68
2023-01-15T05:54:06.348Z,72.26
2023-01-15T05:56:35.928Z,72.70
2023-01-15T05:59:02.513Z,72.45
2023-01-15T06:01:29.030Z,72.46
2023-01-15T06:03:58.788Z,72.12
2023-01-15T06:06:25.404Z,71.86
2023-01-15T06:08:51.909Z,71.68
2023-01-15T06:11:18.683Z,71.41
2023-01-15T06:13:45.120Z,71.04
2023-01-15T06:16:11.766Z,70.93
2023-01-15T06:18:39.301Z,70.92
2023-01-15T06:21:10.808Z,70.40
2023-01-15T06:23:38.571Z,70.18
2023-01-15T06:26:07.816Z,70.27
2023-01-15T06:28:34.307Z,69.11
2023-01-15T06:31:05.165Z,69.41
2023-01-15T06:33:31.729Z,69.42
2023-01-15T06:35:58.131Z,69.37
2023-01-15T06:38:24.534Z,68.57
2023-01-15T06:40:50.927Z,68.26
2023-01-15T06:43:36.370Z,68.16
2023-01-15T06:46:25.667Z,68.30
2023-01-15T06:48:52.197Z,67.98
2023-01-15T06:51:21.001Z,67.80
2023-01-15T06:53:47.991Z,67.46
2023-01-15T06:56:15.273Z,67.68
2023-01-15T06:58:43.881Z,67.86
2023-01-15T07:01:11.813Z,67.66
2023-01-15T07:03:38.327Z,67.15
2023-01-15T07:06:10.646Z,67.33
2023-01-15T07:08:37.079Z,67.11
2023-01-15T07:11:09.027Z,67.42
2023-01-15T07:13:36.130Z,67.33
2023-01-15T07:16:03.955Z,67.34
2023-01-15T07:18:33.199Z,67.21
2023-01-15T07:20:59.806Z,67.00
2023-01-15T07:23:27.228Z,66.96
2023-01-15T07:25:54.083Z,66.76
2023-01-15T07:28:22.260Z,66.74
2023-01-15T07:30:48.727Z,66.69
2023-01-15T07:33:15.306Z,67.04
2023-01-15T07:35:42.133Z,66.84
2023-01-15T07:38:08.541Z,66.94
2023-01-15T07:40:34.946Z,67.13
2023-01-15T07:43:19.998Z,66.89
2023-01-15T07:46:05.028Z,66.83
2023-01-15T07:49:06.660Z,67.04
2023-01-15T07:51:33.100Z,67.23
2023-01-15T07:53:59.479Z,67.09
2023-01-15T07:56:26.077Z,66.85
2023-01-15T07:58:52.460Z,66.92
2023-01-15T08:01:19.198Z,67.06
2023-01-15T08:03:45.655Z,66.86
2023-01-15T08:06:12.062Z,66.94
2023-01-15T08:08:38.503Z,66.72
2023-01-15T08:11:23.577Z,66.69
2023-01-15T08:14:08.321Z,66.75
2023-01-15T08:16:37.621Z,66.63
2023-01-15T08:19:04.253Z,66.27
2023-01-15T08:21:30.772Z,66.12
2023-01-15T08:23:57.191Z,66.21
2023-01-15T08:26:23.627Z,65.81
2023-01-15T08:28:59.508Z,65.91
2023-01-15T08:31:26.436Z,65.78
2023-01-15T08:33:53.102Z,65.57
2023-01-15T08:36:19.540Z,65.62
2023-01-15T08:38:49.165Z,65.51
2023-01-15T08:41:16.073Z,65.12
2023-01-15T08:43:42.609Z,65.83
2023-01-15T08:46:09.854Z,65.71
2023-01-15T08:48:36.288Z,65.81
2023-01-15T08:51:07.047Z,66.09
2023-01-15T08:53:34.015Z,65.79
2023-01-15T08:56:00.604Z,66.09
2023-01-15T08:58:33.231Z,66.08
2023-01-15T09:01:08.189Z,66.64
2023-01-15T09:03:35.522Z,66.33
2023-01-15T09:06:02.869Z,66.51
2023-01-15T09:08:30.064Z,66.44
2023-01-15T09:11:00.900Z,66.47
2023-01-15T09:13:28.545Z,66.73
2023-01-15T09:15:58.748Z,66.40
2023-01-15T09:18:25.075Z,66.57
2023-01-15T09:20:51.498Z,66.45
2023-01-15T09:23:17.969Z,66.76
2023-01-15T09:25:59.873Z,66.56
2023-01-15T09:28:27.649Z,66.19
2023-01-15T09:30:54.300Z,66.09
2023-01-15T09:33:21.090Z,65.44
2023-01-15T09:35:47.879Z,64.76
2023-01-15T09:38:19.330Z,64.53
2023-01-15T09:40:56.601Z,63.90
2023-01-15T09:43:36.197Z,63.50
2023-01-15T09:46:13.753Z,62.23
2023-01-15T09:48:48.372Z,61.71
2023-01-15T09:51:56.834Z,60.91
2023-01-15T09:54:44.807Z,61.48
2023-01-15T09:57:16.478Z,60.84
2023-01-15T09:59:49.022Z,60.73
2023-01-15T10:02:21.637Z,59.54
2023-01-15T10:05:05.249Z,59.38
2023-01-15T10:08:04.470Z,59.50
2023-01-15T10:10:40.555Z,59.51
2023-01-15T10:13:18.833Z,57.98
2023-01-15T10:15:47.202Z,57.97
2023-01-15T10:18:20.322Z,58.11
2023-01-15T10:20:53.101Z,57.98
2023-01-15T10:23:40.048Z,58.04
2023-01-15T10:26:38.680Z,57.95
2023-01-15T10:29:28.411Z,57.62
2023-01-15T10:32:26.837Z,58.41
2023-01-15T10:34:59.042Z,57.34
2023-01-15T10:37:33.266Z,57.42
2023-01-15T10:40:05.562Z,58.11
2023-01-15T10:42:45.588Z,58.07
2023-01-15T10:45:15.146Z,57.11
2023-01-15T10:47:43.706Z,57.26
2023-01-15T10:50:18.653Z,57.49
2023-01-15T10:52:57.450Z,57.44
2023-01-15T10:55:38.396Z,57.27
2023-01-15T10:58:16.768Z,56.97
2023-01-15T11:00:50.673Z,57.02
2023-01-15T11:03:22.362Z,56.81
2023-01-15T11:05:49.768Z,56.60
2023-01-15T11:11:48.300Z,56.68
2023-01-15T11:14:33.099Z,56.71
2023-01-15T11:17:08.842Z,57.04
2023-01-15T11:19:39.666Z,56.58
2023-01-15T11:22:17.910Z,57.23
2023-01-15T11:25:01.264Z,57.07
2023-01-15T11:27:32.854Z,56.94
2023-01-15T11:30:01.425Z,57.30
2023-01-15T11:32:35.046Z,57.03
2023-01-15T11:35:15.252Z,57.65
2023-01-15T11:37:41.662Z,57.98
2023-01-15T11:40:19.520Z,58.06
2023-01-15T11:43:09.077Z,58.12
2023-01-15T11:46:09.122Z,58.28
2023-01-15T11:49:03.728Z,58.12
2023-01-15T11:51:35.535Z,58.60
2023-01-15T11:54:04.990Z,59.76
2023-01-15T11:56:35.158Z,60.70
2023-01-15T11:59:03.615Z,60.55
2023-01-15T12:01:39.325Z,61.61
2023-01-15T12:04:22.151Z,61.84
2023-01-15T12:06:48.968Z,62.68
2023-01-15T12:09:46.112Z,63.15
2023-01-15T12:12:24.323Z,62.33
2023-01-15T12:15:04.033Z,61.80
2023-01-15T12:17:30.897Z,60.80
2023-01-15T12:20:24.527Z,61.05
2023-01-15T12:23:13.094Z,60.26
2023-01-15T12:26:08.800Z,59.77
2023-01-15T12:28:40.548Z,59.54
2023-01-15T12:31:19.570Z,59.22
2023-01-15T12:33:52.575Z,59.63
2023-01-15T12:36:23.927Z,59.92
2023-01-15T12:39:01.041Z,59.79
2023-01-15T12:41:58.725Z,60.32
2023-01-15T12:45:03.461Z,61.31
2023-01-15T12:47:35.873Z,62.08
2023-01-15T12:50:29.707Z,62.77
2023-01-15T12:53:20.846Z,63.34
2023-01-15T12:56:01.782Z,63.98
2023-01-15T12:59:00.737Z,64.61
2023-01-15T13:01:45.703Z,64.69
2023-01-15T13:04:18.428Z,65.01
2023-01-15T13:06:50.366Z,66.00
2023-01-15T13:09:44.315Z,65.74
2023-01-15T13:12:15.155Z,66.03
2023-01-15T13:14:45.510Z,65.81
2023-01-15T13:17:36.511Z,65.90
2023-01-15T13:20:21.332Z,65.62
2023-01-15T13:23:03.019Z,65.35
2023-01-15T13:25:37.956Z,65.13
2023-01-15T13:28:12.755Z,64.56
2023-01-15T13:31:06.552Z,64.97
2023-01-15T13:33:51.978Z,64.48
2023-01-15T13:36:21.330Z,63.83
2023-01-15T13:38:54.284Z,63.24
2023-01-15T13:41:43.292Z,63.42
2023-01-15T13:44:18.814Z,62.76
2023-01-15T13:46:47.793Z,62.45
2023-01-15T13:49:19.936Z,62.82
2023-01-15T13:51:49.262Z,62.39
2023-01-15T13:54:23.833Z,61.75
2023-01-15T13:56:50.422Z,61.69
2023-01-15T13:59:41.579Z,61.25
2023-01-15T14:02:24.773Z,60.95
2023-01-15T14:04:51.607Z,60.64
2023-01-15T14:07:30.954Z,60.43
2023-01-15T14:10:27.976Z,60.53
2023-01-15T14:13:44.602Z,60.72
2023-01-15T14:16:29.132Z,60.44
2023-01-15T14:19:10.502Z,60.71
2023-01-15T14:21:40.783Z,60.57
2023-01-15T14:24:10.244Z,60.32
2023-01-15T14:27:08.192Z,60.42
2023-01-15T14:29:53.309Z,60.57
2023-01-15T14:32:22.836Z,60.55
2023-01-15T14:34:57.877Z,60.35
2023-01-15T14:37:24.303Z,60.39
2023-01-15T14:40:01.755Z,60.44
2023-01-15T14:42:53.408Z,60.80
2023-01-15T14:45:25.776Z,60.65
2023-01-15T14:47:55.199Z,60.85
2023-01-15T14:50:42.235Z,60.79
2023-01-15T14:53:11.755Z,61.30
2023-01-15T14:55:47.204Z,61.18
2023-01-15T14:58:32.040Z,61.48
2023-01-15T15:01:04.580Z,61.12
2023-01-15T15:03:41.416Z,62.11
2023-01-15T15:06:12.148Z,62.68
2023-01-15T15:08:42.214Z,63.98
2023-01-15T15:11:39.192Z,64.88
2023-01-15T15:14:08.843Z,66.80
2023-01-15T15:16:42.704Z,68.38
2023-01-15T15:19:23.103Z,69.66
2023-01-15T15:21:50.778Z,71.10
2023-01-15T15:24:26.481Z,71.83
2023-01-15T15:26:52.957Z,73.41
2023-01-15T15:29:20.574Z,74.58
2023-01-15T15:31:56.879Z,75.81
2023-01-15T15:34:29.122Z,77.59
2023-01-15T15:37:01.190Z,78.49
2023-01-15T15:39:39.803Z,79.56
2023-01-15T15:42:34.111Z,80.46
2023-01-15T15:45:19.019Z,80.20
2023-01-15T15:48:04.153Z,81.69
2023-01-15T15:50:32.890Z,82.58
2023-01-15T15:53:04.257Z,83.46
2023-01-15T15:55:43.986Z,84.28
2023-01-15T15:58:43.557Z,84.92
2023-01-15T16:01:13.122Z,84.61
2023-01-15T16:03:47.742Z,85.38
2023-01-15T16:06:21.162Z,86.02
2023-01-15T16:09:04.797Z,86.81
2023-01-15T16:11:33.583Z,86.51
2023-01-15T16:14:05.709Z,87.01
2023-01-15T16:16:32.876Z,86.76
2023-01-15T16:19:01.478Z,87.15
2023-01-15T16:21:40.231Z,87.57
2023-01-15T16:24:09.236Z,87.83
2023-01-15T16:26:37.822Z,87.72
2023-01-15T16:29:06.581Z,87.80
2023-01-15T16:31:37.819Z,87.73
2023-01-15T16:34:05.478Z,87.29
2023-01-15T16:36:42.102Z,86.54
2023-01-15T16:39:20.940Z,85.73
2023-01-15T16:41:48.388Z,85.26
2023-01-15T16:44:37.827Z,85.38
2023-01-15T16:47:05.776Z,84.86
2023-01-15T16:49:33.955Z,84.79
2023-01-15T16:52:02.321Z,84.81
2023-01-15T16:54:31.797Z,84.94
2023-01-15T16:56:59.099Z,84.69
2023-01-15T16:59:28.509Z,84.60
2023-01-15T17:02:02.853Z,84.57
2023-01-15T17:04:31.589Z,84.33
2023-01-15T17:07:18.724Z,84.37
2023-01-15T17:09:49.534Z,84.14
2023-01-15T17:12:35.933Z,84.03
2023-01-15T17:15:17.742Z,84.04
2023-01-15T17:17:49.096Z,83.55
2023-01-15T17:20:16.888Z,83.94
2023-01-15T17:22:45.873Z,83.63
2023-01-15T17:25:23.633Z,83.61
2023-01-15T17:27:54.575Z,83.08
2023-01-15T17:30:21.302Z,83.00
2023-01-15T17:32:47.893Z,82.94
2023-01-15T17:35:23.610Z,83.15
2023-01-15T17:37:50.342Z,82.95
2023-01-15T17:40:16.999Z,83.09
2023-01-15T17:42:43.592Z,83.13
2023-01-15T17:45:30.394Z,83.28
2023-01-15T17:47:56.919Z,82.62
2023-01-15T17:50:23.538Z,82.83
2023-01-15T17:52:50.745Z,82.62
2023-01-15T17:55:40.610Z,82.71
2023-01-15T17:58:29.338Z,83.00
2023-01-15T18:01:14.711Z,82.66
2023-01-15T18:04:06.234Z,82.77
2023-01-15T18:06:33.967Z,82.58
2023-01-15T18:09:02.908Z,82.46
2023-01-15T18:11:29.612Z,82.69
2023-01-15T18:13:57.024Z,82.52
2023-01-15T18:16:24.105Z,81.83
2023-01-15T18:18:53.784Z,81.94
2023-01-15T18:21:20.673Z,81.57
2023-01-15T18:23:47.313Z,81.37
2023-01-15T18:26:14.165Z,80.84
2023-01-15T18:28:40.602Z,80.71
2023-01-15T18:31:07.348Z,80.23
2023-01-15T18:33:34.141Z,80.28
2023-01-15T18:36:04.442Z,80.12
2023-01-15T18:38:30.749Z,79.54
2023-01-15T18:40:57.178Z,79.46
2023-01-15T18:43:41.877Z,79.47
2023-01-15T18:46:27.259Z,79.15
2023-01-15T18:48:53.804Z,78.82
2023-01-15T18:51:21.015Z,78.62
2023-01-15T18:53:48.605Z,78.42
2023-01-15T18:56:34.975Z,78.26
2023-01-15T18:59:01.353Z,77.95
2023-01-15T19:01:27.824Z,77.71
2023-01-15T19:03:55.858Z,77.66
2023-01-15T19:06:22.241Z,77.75
2023-01-15T19:08:48.846Z,77.41
2023-01-15T19:11:15.358Z,77.36
2023-01-15T19:13:41.771Z,76.88
2023-01-15T19:16:27.419Z,76.95
2023-01-15T19:18:53.908Z,77.19
2023-01-15T19:21:21.556Z,77.39
2023-01-15T19:23:48.050Z,77.60
2023-01-15T19:26:14.843Z,77.73
2023-01-15T19:28:41.520Z,77.61
2023-01-15T19:31:27.945Z,78.00
2023-01-15T19:34:31.101Z,77.71
2023-01-15T19:36:45.787Z,78.12
2023-01-15T19:39:12.302Z,78.16
2023-01-15T19:41:57.756Z,78.03
2023-01-15T19:44:42.895Z,78.18
2023-01-15T19:47:33.478Z,78.50
2023-01-15T19:50:18.711Z,77.57
2023-01-15T19:52:49.445Z,77.93
2023-01-15T19:55:17.668Z,78.02
2023-01-15T19:57:47.745Z,77.83
2023-01-15T20:00:17.882Z,78.53
2023-01-15T20:02:45.786Z,78.15
2023-01-15T20:05:14.340Z,78.40
2023-01-15T20:07:41.712Z,77.96
2023-01-15T20:10:14.518Z,78.34
2023-01-15T20:13:00.349Z,78.25
2023-01-15T20:15:27.398Z,77.90
2023-01-15T20:17:54.255Z,78.52
2023-01-15T20:20:20.726Z,78.61
2023-01-15T20:22:47.279Z,78.54
2023-01-15T20:25:13.965Z,78.55
2023-01-15T20:27:41.257Z,78.50
2023-01-15T20:30:11.601Z,78.23
2023-01-15T20:32:40.287Z,78.11
2023-01-15T20:35:08.803Z,77.70
2023-01-15T20:37:35.282Z,77.81
2023-01-15T20:40:01.754Z,77.68
2023-01-15T20:42:48.312Z,77.34
2023-01-15T20:45:15.239Z,77.28
2023-01-15T20:48:01.823Z,77.02
2023-01-15T20:50:31.040Z,76.99
2023-01-15T20:52:58.650Z,76.84
2023-01-15T20:55:45.657Z,76.98
2023-01-15T20:58:16.255Z,77.18
2023-01-15T21:00:42.681Z,76.62
2023-01-15T21:03:11.302Z,76.41
2023-01-15T21:05:37.996Z,76.13
2023-01-15T21:08:04.776Z,76.18
2023-01-15T21:10:31.181Z,76.23
2023-01-15T21:12:57.589Z,76.37
2023-01-15T21:15:23.976Z,76.71
2023-01-15T21:17:50.425Z,76.61
2023-01-15T21:20:16.917Z,76.64
2023-01-15T21:22:44.320Z,76.23
2023-01-15T21:25:11.211Z,75.93
2023-01-15T21:27:38.089Z,75.97
2023-01-15T21:30:05.977Z,75.97
2023-01-15T21:32:32.634Z,75.70
2023-01-15T21:34:59.035Z,75.63
2023-01-15T21:37:25.465Z,75.41
2023-01-15T21:39:51.843Z,75.59
2023-01-15T21:42:38.930Z,75.66
2023-01-15T21:45:06.696Z,75.72
2023-01-15T21:47:34.057Z,76.03
2023-01-15T21:50:00.503Z,76.29
2023-01-15T21:52:29.287Z,76.52
2023-01-15T21:54:55.779Z,76.90
2023-01-15T21:57:22.392Z,77.08
2023-01-15T21:59:49.146Z,76.85
2023-01-15T22:02:18.999Z,77.30
2023-01-15T22:04:45.568Z,77.78
2023-01-15T22:07:12.031Z,77.74
2023-01-15T22:09:38.751Z,77.48
2023-01-15T22:12:05.882Z,77.86
2023-01-15T22:14:33.326Z,78.18
2023-01-15T22:17:02.420Z,77.69
2023-01-15T22:19:30.745Z,77.78
2023-01-15T22:22:00.222Z,77.80
2023-01-15T22:24:31.421Z,77.79
2023-01-15T22:26:58.722Z,77.99
2023-01-15T22:29:28.020Z,78.43
2023-01-15T22:31:54.775Z,78.06
2023-01-15T22:34:22.204Z,78.37
2023-01-15T22:36:49.868Z,78.78
2023-01-15T22:39:16.337Z,78.66
2023-01-15T22:42:02.385Z,78.81
2023-01-15T22:44:28.865Z,78.47
2023-01-15T22:46:55.545Z,78.12
2023-01-15T22:49:22.400Z,78.04
2023-01-15T22:51:49.679Z,78.29
2023-01-15T22:54:18.671Z,78.61
2023-01-15T22:56:45.707Z,78.73
2023-01-15T22:59:13.631Z,78.77
2023-01-15T23:01:40.733Z,78.27
2023-01-15T23:04:17.760Z,78.52
2023-01-15T23:06:44.890Z,77.70
2023-01-15T23:09:12.421Z,77.48
2023-01-15T23:11:39.183Z,77.13
2023-01-15T23:14:07.324Z,76.81
2023-01-15T23:16:34.474Z,76.54
2023-01-15T23:19:01.405Z,75.94
2023-01-15T23:21:28.787Z,75.98
2023-01-15T23:24:00.310Z,76.13
2023-01-15T23:26:29.908Z,75.76
2023-01-15T23:28:56.871Z,75.41
2023-01-15T23:31:24.306Z,75.26
2023-01-15T23:33:51.001Z,75.12
2023-01-15T23:36:17.817Z,75.01
2023-01-15T23:38:46.598Z,75.26
2023-01-15T23:41:19.071Z,75.72
2023-01-15T23:44:04.841Z,75.13
2023-01-15T23:46:37.434Z,75.60
2023-01-15T23:49:06.860Z,75.85
2023-01-15T23:51:34.341Z,75.51
2023-01-15T23:54:01.663Z,75.72
2023-01-15T23:56:30.428Z,75.53
2023-01-15T23:58:57.027Z,75.74
